Wetterdaten: Woche 24.04.23 - 30.04.23 (KW17)
Datum Zeit Temp. Aussen Temp. o. S. Temp +5cm Feuchte Auss Luftdruck Regen Sonnenschein Regendauer Solar Windben Empfang
24.04.2023 00:00 11,1 C 10,6 C 7,0 C 84 % 1001,6 hPa 0,0 l/m 0,00 h 0,00 h 0 W/m 30,9 km/h (5 Bft) 98,40 %
24.04.2023 01:00 11,2 C 10,6 C 7,0 C 83 % 1001,6 hPa 0,0 l/m 0,00 h 0,00 h 0 W/m 23,2 km/h (4 Bft) 96,36 %
24.04.2023 02:00 10,5 C 9,5 C 6,3 C 84 % 1001,6 hPa 0,0 l/m 0,00 h 0,00 h 0 W/m 26,1 km/h (4 Bft) 96,00 %
24.04.2023 03:00 9,5 C 8,9 C 5,6 C 86 % 1001,6 hPa 0,0 l/m 0,00 h 0,00 h 0 W/m 26,8 km/h (4 Bft) 97,91 %
24.04.2023 04:00 9,3 C 8,9 C 5,6 C 87 % 1001,6 hPa 0,0 l/m 0,00 h 0,00 h 0 W/m 26,8 km/h (4 Bft) 96,88 %
24.04.2023 05:00 9,4 C 8,9 C 5,6 C 87 % 1001,9 hPa 0,0 l/m 0,00 h 0,00 h 0 W/m 23,9 km/h (4 Bft) 96,55 %
24.04.2023 06:00 9,3 C 8,6 C 5,3 C 86 % 1002,0 hPa 0,0 l/m 0,00 h 0,17 h 0 W/m 26,8 km/h (4 Bft) 99,41 %
24.04.2023 07:00 8,7 C 7,8 C 4,2 C 91 % 1002,3 hPa 0,2 l/m 0,00 h 0,53 h 30 W/m 26,4 km/h (4 Bft) 95,32 %
24.04.2023 08:00 8,5 C 7,4 C 3,9 C 92 % 1002,5 hPa 1,0 l/m 0,00 h 1,00 h 66 W/m 30,4 km/h (5 Bft) 97,80 %
24.04.2023 09:00 7,7 C 6,6 C 3,2 C 93 % 1002,8 hPa 1,0 l/m 0,00 h 0,97 h 48 W/m 26,1 km/h (4 Bft) 97,49 %
24.04.2023 10:00 7,8 C 6,9 C 3,6 C 96 % 1003,8 hPa 2,6 l/m 0,00 h 1,00 h 82 W/m 18,8 km/h (3 Bft) 93,31 %
24.04.2023 11:00 8,1 C 7,4 C 4,0 C 95 % 1005,5 hPa 1,8 l/m 0,00 h 1,00 h 115 W/m 20,7 km/h (4 Bft) 98,65 %
24.04.2023 12:00 8,5 C 8,3 C 4,5 C 96 % 1006,6 hPa 0,8 l/m 0,07 h 0,70 h 162 W/m 18,1 km/h (3 Bft) 98,45 %
24.04.2023 13:00 9,1 C 9,0 C 4,6 C 92 % 1007,4 hPa 0,2 l/m 0,07 h 0,00 h 185 W/m 18,8 km/h (3 Bft) 95,45 %
24.04.2023 14:00 10,2 C 10,8 C 5,9 C 83 % 1008,2 hPa 0,0 l/m 0,30 h 0,00 h 349 W/m 23,5 km/h (4 Bft) 97,67 %
24.04.2023 15:00 10,6 C 10,7 C 7,0 C 77 % 1008,7 hPa 0,0 l/m 0,03 h 0,00 h 258 W/m 22,1 km/h (4 Bft) 98,58 %
24.04.2023 16:00 11,0 C 11,4 C 7,4 C 75 % 1008,8 hPa 0,0 l/m 0,60 h 0,00 h 308 W/m 18,8 km/h (3 Bft) 96,28 %
24.04.2023 17:00 11,7 C 12,7 C 7,9 C 73 % 1009,0 hPa 0,0 l/m 0,47 h 0,00 h 312 W/m 19,7 km/h (3 Bft) 97,61 %
24.04.2023 18:00 11,3 C 12,6 C 7,5 C 76 % 1009,2 hPa 0,0 l/m 0,83 h 0,00 h 283 W/m 16,6 km/h (3 Bft) 97,80 %
24.04.2023 19:00 10,3 C 9,7 C 6,1 C 77 % 1009,6 hPa 0,0 l/m 0,00 h 0,00 h 49 W/m 13,4 km/h (3 Bft) 97,51 %
24.04.2023 20:00 9,6 C 9,0 C 5,6 C 83 % 1010,0 hPa 0,0 l/m 0,00 h 0,00 h 12 W/m 6,5 km/h (2 Bft) 98,36 %
24.04.2023 21:00 9,1 C 8,0 C 4,5 C 82 % 1010,5 hPa 0,0 l/m 0,00 h 0,00 h 0 W/m 4,8 km/h (1 Bft) 95,65 %
24.04.2023 22:00 7,9 C 6,9 C 3,5 C 85 % 1010,8 hPa 0,0 l/m 0,00 h 0,00 h 0 W/m 3,7 km/h (1 Bft) 97,14 %
24.04.2023 23:00 7,1 C 6,4 C 3,1 C 86 % 1010,8 hPa 0,0 l/m 0,00 h 0,00 h 0 W/m 6,4 km/h (2 Bft) 97,73 %
25.04.2023 00:00 6,6 C 5,8 C 2,8 C 87 % 1010,7 hPa 0,0 l/m 0,00 h 0,00 h 0 W/m 6,4 km/h (2 Bft) 96,18 %
25.04.2023 01:00 6,3 C 5,6 C 2,4 C 88 % 1010,7 hPa 0,0 l/m 0,00 h 0,00 h 0 W/m 6,6 km/h (2 Bft) 97,36 %
25.04.2023 02:00 6,5 C 6,0 C 2,8 C 89 % 1010,9 hPa 0,0 l/m 0,00 h 0,00 h 0 W/m 7,2 km/h (2 Bft) 98,06 %
25.04.2023 03:00 6,6 C 6,0 C 2,8 C 89 % 1011,0 hPa 0,0 l/m 0,00 h 0,00 h 0 W/m 10,0 km/h (2 Bft) 97,76 %
25.04.2023 04:00 6,5 C 5,8 C 2,5 C 89 % 1011,3 hPa 0,0 l/m 0,00 h 0,00 h 0 W/m 7,3 km/h (2 Bft) 96,62 %
25.04.2023 05:00 5,8 C 5,0 C 1,9 C 91 % 1011,3 hPa 0,0 l/m 0,00 h 0,00 h 0 W/m 6,3 km/h (2 Bft) 94,94 %
25.04.2023 06:00 5,3 C 4,4 C 1,6 C 92 % 1011,7 hPa 0,0 l/m 0,00 h 0,00 h 18 W/m 5,2 km/h (1 Bft) 98,90 %
25.04.2023 07:00 5,5 C 5,5 C 2,2 C 93 % 1012,3 hPa 0,0 l/m 0,07 h 0,00 h 69 W/m 7,7 km/h (2 Bft) 96,38 %
25.04.2023 08:00 6,6 C 7,5 C 3,3 C 89 % 1012,9 hPa 0,0 l/m 0,77 h 0,00 h 195 W/m 16,6 km/h (3 Bft) 96,09 %
25.04.2023 09:00 8,2 C 11,8 C 4,6 C 81 % 1013,3 hPa 0,0 l/m 0,60 h 0,00 h 315 W/m 18,8 km/h (3 Bft) 97,99 %
25.04.2023 10:00 9,3 C 11,3 C 5,5 C 72 % 1014,0 hPa 0,0 l/m 0,27 h 0,00 h 281 W/m 17,2 km/h (3 Bft) 97,67 %
25.04.2023 11:00 9,3 C 10,8 C 6,3 C 69 % 1014,7 hPa 0,0 l/m 0,43 h 0,00 h 362 W/m 18,4 km/h (3 Bft) 97,52 %
25.04.2023 12:00 10,1 C 12,5 C 7,7 C 68 % 1015,3 hPa 0,0 l/m 0,60 h 0,00 h 437 W/m 16,1 km/h (3 Bft) 97,88 %
25.04.2023 13:00 10,3 C 11,1 C 7,2 C 66 % 1015,4 hPa 0,0 l/m 0,33 h 0,00 h 331 W/m 16,2 km/h (3 Bft) 94,54 %
25.04.2023 14:00 10,5 C 13,4 C 7,2 C 63 % 1015,7 hPa 0,0 l/m 0,50 h 0,00 h 530 W/m 18,0 km/h (3 Bft) 98,84 %
25.04.2023 15:00 10,0 C 11,0 C 6,7 C 65 % 1016,1 hPa 0,0 l/m 0,27 h 0,00 h 363 W/m 18,1 km/h (3 Bft) 96,55 %
25.04.2023 16:00 11,1 C 13,2 C 7,5 C 64 % 1016,0 hPa 0,0 l/m 0,70 h 0,00 h 502 W/m 16,3 km/h (3 Bft) 99,06 %
25.04.2023 17:00 11,5 C 14,0 C 8,2 C 60 % 1016,3 hPa 0,0 l/m 0,67 h 0,00 h 383 W/m 24,0 km/h (4 Bft) 97,73 %
25.04.2023 18:00 10,9 C 12,8 C 7,4 C 60 % 1016,5 hPa 0,0 l/m 0,97 h 0,00 h 314 W/m 20,0 km/h (4 Bft) 95,96 %
25.04.2023 19:00 9,8 C 9,2 C 5,6 C 61 % 1016,9 hPa 0,0 l/m 0,00 h 0,00 h 48 W/m 17,6 km/h (3 Bft) 99,29 %
25.04.2023 20:00 8,7 C 7,9 C 4,4 C 67 % 1017,5 hPa 0,0 l/m 0,00 h 0,00 h 18 W/m 15,5 km/h (3 Bft) 95,87 %
25.04.2023 21:00 8,2 C 7,1 C 3,6 C 70 % 1018,2 hPa 0,0 l/m 0,00 h 0,00 h 0 W/m 9,6 km/h (2 Bft) 95,43 %
25.04.2023 22:00 7,0 C 5,6 C 2,2 C 73 % 1018,6 hPa 0,0 l/m 0,00 h 0,00 h 0 W/m 4,6 km/h (1 Bft) 97,73 %
25.04.2023 23:00 5,7 C 4,0 C 0,9 C 77 % 1018,8 hPa 0,0 l/m 0,00 h 0,00 h 0 W/m 1,0 km/h (0 Bft) 96,59 %
26.04.2023 00:00 4,6 C 3,4 C 0,0 C 82 % 1019,2 hPa 0,0 l/m 0,00 h 0,00 h 0 W/m 0,7 km/h (0 Bft) 97,40 %
26.04.2023 01:00 3,9 C 2,5 C -0,5 C 84 % 1019,5 hPa 0,0 l/m 0,00 h 0,00 h 0 W/m 0,2 km/h (0 Bft) 96,50 %
26.04.2023 02:00 3,1 C 2,0 C -1,1 C 87 % 1019,6 hPa 0,0 l/m 0,00 h 0,00 h 0 W/m 0,0 km/h (0 Bft) 95,62 %
26.04.2023 03:00 2,5 C 1,2 C -1,6 C 89 % 1019,6 hPa 0,0 l/m 0,00 h 0,00 h 0 W/m 0,0 km/h (0 Bft) 96,04 %
26.04.2023 04:00 1,9 C 0,6 C -2,0 C 90 % 1019,5 hPa 0,0 l/m 0,00 h 0,00 h 0 W/m 0,0 km/h (0 Bft) 99,22 %
26.04.2023 05:00 1,3 C 0,0 C -2,3 C 91 % 1019,3 hPa 0,0 l/m 0,00 h 0,00 h 0 W/m 0,0 km/h (0 Bft) 97,39 %
26.04.2023 06:00 0,8 C -0,1 C -2,6 C 92 % 1019,4 hPa 0,0 l/m 0,00 h 0,00 h 11 W/m 0,0 km/h (0 Bft) 96,48 %
26.04.2023 07:00 1,3 C 1,5 C -1,5 C 93 % 1019,8 hPa 0,0 l/m 0,00 h 0,00 h 43 W/m 1,2 km/h (1 Bft) 95,48 %
26.04.2023 08:00 4,1 C 5,4 C 1,1 C 91 % 1020,1 hPa 0,0 l/m 0,37 h 0,00 h 169 W/m 2,0 km/h (1 Bft) 97,79 %
26.04.2023 09:00 6,6 C 9,7 C 3,9 C 81 % 1020,3 hPa 0,0 l/m 0,93 h 0,00 h 312 W/m 4,3 km/h (1 Bft) 96,23 %
26.04.2023 10:00 7,3 C 8,8 C 4,4 C 76 % 1020,3 hPa 0,0 l/m 0,30 h 0,00 h 264 W/m 7,1 km/h (2 Bft) 94,53 %
26.04.2023 11:00 8,0 C 10,4 C 5,7 C 69 % 1020,2 hPa 0,0 l/m 0,60 h 0,00 h 430 W/m 8,7 km/h (2 Bft) 99,50 %
26.04.2023 12:00 8,7 C 11,1 C 6,8 C 65 % 1019,9 hPa 0,0 l/m 0,57 h 0,00 h 391 W/m 8,3 km/h (2 Bft) 96,13 %
26.04.2023 13:00 9,5 C 11,2 C 7,0 C 62 % 1019,7 hPa 0,0 l/m 0,50 h 0,00 h 388 W/m 8,1 km/h (2 Bft) 99,57 %
26.04.2023 14:00 10,9 C 14,7 C 7,6 C 58 % 1019,5 hPa 0,0 l/m 0,80 h 0,00 h 580 W/m 9,3 km/h (2 Bft) 96,87 %
26.04.2023 15:00 10,9 C 13,0 C 7,6 C 56 % 1019,5 hPa 0,0 l/m 0,77 h 0,00 h 474 W/m 8,8 km/h (2 Bft) 96,66 %
26.04.2023 16:00 11,5 C 12,9 C 7,9 C 55 % 1019,3 hPa 0,0 l/m 0,70 h 0,00 h 366 W/m 8,3 km/h (2 Bft) 98,36 %
26.04.2023 17:00 11,5 C 13,3 C 7,8 C 55 % 1019,1 hPa 0,0 l/m 0,73 h 0,00 h 317 W/m 9,2 km/h (2 Bft) 97,01 %
26.04.2023 18:00 11,4 C 12,4 C 7,5 C 55 % 1019,0 hPa 0,0 l/m 0,70 h 0,00 h 210 W/m 10,2 km/h (2 Bft) 98,92 %
26.04.2023 19:00 10,6 C 10,2 C 6,4 C 59 % 1019,0 hPa 0,0 l/m 0,13 h 0,00 h 82 W/m 10,0 km/h (2 Bft) 95,80 %
26.04.2023 20:00 9,6 C 8,8 C 5,3 C 63 % 1019,3 hPa 0,0 l/m 0,00 h 0,00 h 18 W/m 6,3 km/h (2 Bft) 98,93 %
26.04.2023 21:00 9,2 C 8,4 C 4,4 C 65 % 1019,7 hPa 0,0 l/m 0,00 h 0,00 h 0 W/m 4,7 km/h (1 Bft) 96,52 %
26.04.2023 22:00 8,8 C 7,9 C 4,1 C 68 % 1020,0 hPa 0,0 l/m 0,00 h 0,00 h 0 W/m 4,9 km/h (1 Bft) 97,49 %
26.04.2023 23:00 8,2 C 7,1 C 3,4 C 72 % 1020,1 hPa 0,0 l/m 0,00 h 0,00 h 0 W/m 1,8 km/h (1 Bft) 96,75 %
27.04.2023 00:00 7,4 C 6,1 C 2,5 C 75 % 1020,3 hPa 0,0 l/m 0,00 h 0,00 h 0 W/m 1,6 km/h (1 Bft) 98,66 %
27.04.2023 01:00 6,2 C 4,5 C 1,2 C 79 % 1020,5 hPa 0,0 l/m 0,00 h 0,00 h 0 W/m 0,0 km/h (0 Bft) 98,34 %
27.04.2023 02:00 5,0 C 3,6 C 0,6 C 83 % 1020,7 hPa 0,0 l/m 0,00 h 0,00 h 0 W/m 0,0 km/h (0 Bft) 97,28 %
27.04.2023 03:00 4,2 C 2,9 C -0,2 C 86 % 1020,7 hPa 0,0 l/m 0,00 h 0,00 h 0 W/m 0,0 km/h (0 Bft) 95,31 %
27.04.2023 04:00 3,4 C 2,4 C -0,6 C 87 % 1020,8 hPa 0,0 l/m 0,00 h 0,00 h 0 W/m 1,1 km/h (0 Bft) 97,87 %
27.04.2023 05:00 3,0 C 2,1 C -1,0 C 89 % 1020,7 hPa 0,0 l/m 0,00 h 0,00 h 0 W/m 0,9 km/h (0 Bft) 96,89 %
27.04.2023 06:00 2,7 C 2,1 C -1,1 C 90 % 1020,9 hPa 0,0 l/m 0,00 h 0,00 h 13 W/m 2,3 km/h (1 Bft) 95,54 %
27.04.2023 07:00 3,1 C 3,1 C -0,4 C 91 % 1021,3 hPa 0,0 l/m 0,00 h 0,00 h 34 W/m 3,9 km/h (1 Bft) 96,98 %
27.04.2023 08:00 4,9 C 6,6 C 1,4 C 91 % 1021,5 hPa 0,0 l/m 0,33 h 0,00 h 152 W/m 6,7 km/h (2 Bft) 96,71 %
27.04.2023 09:00 9,1 C 16,9 C 6,6 C 77 % 1021,5 hPa 0,0 l/m 0,87 h 0,00 h 407 W/m 9,5 km/h (2 Bft) 98,86 %
27.04.2023 10:00 10,9 C 16,2 C 7,3 C 67 % 1021,2 hPa 0,0 l/m 0,83 h 0,00 h 502 W/m 11,6 km/h (2 Bft) 97,84 %
27.04.2023 11:00 12,0 C 16,2 C 8,9 C 61 % 1021,0 hPa 0,0 l/m 1,00 h 0,00 h 658 W/m 10,0 km/h (2 Bft) 96,51 %
27.04.2023 12:00 13,3 C 18,7 C 11,8 C 53 % 1020,6 hPa 0,0 l/m 1,00 h 0,00 h 661 W/m 10,9 km/h (2 Bft) 96,71 %
27.04.2023 13:00 14,0 C 20,3 C 11,0 C 48 % 1020,3 hPa 0,0 l/m 1,00 h 0,00 h 694 W/m 9,3 km/h (2 Bft) 95,43 %
27.04.2023 14:00 15,3 C 23,9 C 10,7 C 48 % 1019,7 hPa 0,0 l/m 1,00 h 0,00 h 867 W/m 11,6 km/h (2 Bft) 97,65 %
27.04.2023 15:00 16,6 C 22,4 C 11,5 C 45 % 1019,4 hPa 0,0 l/m 1,00 h 0,00 h 711 W/m 10,0 km/h (2 Bft) 98,65 %
27.04.2023 16:00 16,2 C 19,3 C 11,8 C 46 % 1018,8 hPa 0,0 l/m 1,00 h 0,00 h 445 W/m 9,1 km/h (2 Bft) 95,04 %
27.04.2023 17:00 15,5 C 17,7 C 11,5 C 50 % 1018,1 hPa 0,0 l/m 1,00 h 0,00 h 296 W/m 10,3 km/h (2 Bft) 98,08 %
27.04.2023 18:00 14,6 C 15,7 C 10,6 C 54 % 1017,6 hPa 0,0 l/m 0,90 h 0,00 h 180 W/m 8,8 km/h (2 Bft) 97,13 %
27.04.2023 19:00 13,7 C 13,4 C 9,2 C 58 % 1017,0 hPa 0,0 l/m 0,00 h 0,00 h 61 W/m 7,5 km/h (2 Bft) 95,54 %
27.04.2023 20:00 12,3 C 11,5 C 7,7 C 63 % 1016,8 hPa 0,0 l/m 0,00 h 0,00 h 11 W/m 5,5 km/h (1 Bft) 97,78 %
27.04.2023 21:00 11,3 C 10,6 C 6,9 C 66 % 1016,7 hPa 0,0 l/m 0,00 h 0,00 h 0 W/m 4,6 km/h (1 Bft) 99,15 %
27.04.2023 22:00 10,7 C 9,9 C 6,3 C 69 % 1016,5 hPa 0,0 l/m 0,00 h 0,00 h 0 W/m 6,2 km/h (2 Bft) 97,52 %
27.04.2023 23:00 10,2 C 9,4 C 5,9 C 71 % 1015,7 hPa 0,0 l/m 0,00 h 0,00 h 0 W/m 5,4 km/h (1 Bft) 99,49 %
28.04.2023 00:00 10,0 C 9,3 C 5,7 C 72 % 1014,8 hPa 0,0 l/m 0,00 h 0,08 h 0 W/m 1,1 km/h (0 Bft) 99,85 %
28.04.2023 01:00 9,6 C 8,7 C 4,9 C 78 % 1014,4 hPa 0,0 l/m 0,00 h 0,42 h 0 W/m 0,0 km/h (0 Bft) 99,34 %
28.04.2023 02:00 9,1 C 8,2 C 4,2 C 82 % 1013,6 hPa 0,2 l/m 0,00 h 0,60 h 0 W/m 4,5 km/h (1 Bft) 94,37 %
28.04.2023 03:00 8,8 C 7,9 C 4,0 C 88 % 1013,2 hPa 0,6 l/m 0,00 h 0,73 h 0 W/m 3,3 km/h (1 Bft) 98,55 %
28.04.2023 04:00 9,1 C 8,3 C 4,5 C 92 % 1012,8 hPa 0,0 l/m 0,00 h 0,40 h 0 W/m 2,0 km/h (1 Bft) 97,85 %
28.04.2023 05:00 9,6 C 8,9 C 5,0 C 93 % 1012,2 hPa 0,0 l/m 0,00 h 0,00 h 0 W/m 5,9 km/h (2 Bft) 96,53 %
28.04.2023 06:00 9,8 C 9,3 C 5,5 C 92 % 1011,7 hPa 0,0 l/m 0,00 h 0,00 h 7 W/m 7,1 km/h (2 Bft) 97,75 %
28.04.2023 07:00 10,1 C 9,4 C 5,8 C 92 % 1011,4 hPa 0,0 l/m 0,00 h 0,00 h 28 W/m 8,3 km/h (2 Bft) 97,95 %
28.04.2023 08:00 10,5 C 10,7 C 6,8 C 92 % 1011,2 hPa 0,0 l/m 0,00 h 0,00 h 84 W/m 9,8 km/h (2 Bft) 97,51 %
28.04.2023 09:00 11,7 C 11,9 C 7,6 C 89 % 1011,1 hPa 0,2 l/m 0,17 h 0,13 h 182 W/m 14,3 km/h (3 Bft) 96,91 %
28.04.2023 10:00 12,4 C 12,8 C 8,2 C 91 % 1011,1 hPa 0,0 l/m 0,00 h 0,10 h 216 W/m 13,2 km/h (3 Bft) 97,46 %
28.04.2023 11:00 13,3 C 13,3 C 9,2 C 90 % 1011,1 hPa 0,0 l/m 0,00 h 0,00 h 171 W/m 11,5 km/h (2 Bft) 97,26 %
28.04.2023 12:00 13,9 C 13,7 C 9,6 C 93 % 1010,9 hPa 0,0 l/m 0,00 h 0,00 h 127 W/m 11,6 km/h (2 Bft) 97,87 %
28.04.2023 13:00 14,7 C 14,9 C 10,5 C 95 % 1010,8 hPa 0,0 l/m 0,13 h 0,10 h 221 W/m 11,2 km/h (2 Bft) 97,37 %
28.04.2023 14:00 17,6 C 20,6 C 13,9 C 87 % 1010,5 hPa 0,0 l/m 0,73 h 0,00 h 450 W/m 10,4 km/h (2 Bft) 96,84 %
28.04.2023 15:00 19,4 C 20,7 C 14,9 C 78 % 1010,1 hPa 0,0 l/m 0,73 h 0,00 h 389 W/m 15,1 km/h (3 Bft) 99,07 %
28.04.2023 16:00 19,2 C 19,2 C 14,3 C 76 % 1010,1 hPa 0,0 l/m 0,27 h 0,00 h 261 W/m 18,4 km/h (3 Bft) 94,87 %
28.04.2023 17:00 16,6 C 16,0 C 12,1 C 81 % 1011,0 hPa 0,0 l/m 0,00 h 0,00 h 128 W/m 19,9 km/h (4 Bft) 99,03 %
28.04.2023 18:00 15,8 C 15,3 C 11,5 C 81 % 1011,4 hPa 0,0 l/m 0,00 h 0,00 h 93 W/m 16,7 km/h (3 Bft) 98,32 %
28.04.2023 19:00 15,0 C 14,2 C 10,7 C 85 % 1011,8 hPa 0,0 l/m 0,00 h 0,00 h 47 W/m 13,7 km/h (3 Bft) 96,19 %
28.04.2023 20:00 14,4 C 13,8 C 10,0 C 89 % 1012,2 hPa 0,0 l/m 0,00 h 0,00 h 8 W/m 6,4 km/h (2 Bft) 97,94 %
28.04.2023 21:00 14,2 C 13,3 C 9,8 C 89 % 1012,4 hPa 0,0 l/m 0,00 h 0,00 h 0 W/m 6,9 km/h (2 Bft) 98,85 %
28.04.2023 22:00 13,9 C 13,0 C 9,5 C 91 % 1012,8 hPa 0,0 l/m 0,00 h 0,13 h 0 W/m 14,8 km/h (3 Bft) 94,78 %
28.04.2023 23:00 13,1 C 12,2 C 8,8 C 94 % 1013,0 hPa 0,0 l/m 0,00 h 0,00 h 0 W/m 14,6 km/h (3 Bft) 99,01 %
29.04.2023 00:00 12,6 C 12,0 C 8,6 C 95 % 1013,3 hPa 0,0 l/m 0,00 h 0,00 h 0 W/m 14,4 km/h (3 Bft) 93,90 %
29.04.2023 01:00 12,0 C 11,4 C 8,1 C 92 % 1013,6 hPa 0,0 l/m 0,00 h 0,00 h 0 W/m 12,5 km/h (3 Bft) 94,07 %
29.04.2023 02:00 11,3 C 10,5 C 7,2 C 93 % 1014,1 hPa 0,0 l/m 0,00 h 0,03 h 0 W/m 16,8 km/h (3 Bft) 99,27 %
29.04.2023 03:00 10,6 C 9,9 C 6,9 C 94 % 1014,6 hPa 0,0 l/m 0,00 h 0,00 h 0 W/m 16,2 km/h (3 Bft) 97,51 %
29.04.2023 04:00 10,0 C 9,4 C 6,4 C 94 % 1015,1 hPa 0,0 l/m 0,00 h 0,00 h 0 W/m 15,4 km/h (3 Bft) 95,94 %
29.04.2023 05:00 9,7 C 8,8 C 5,7 C 95 % 1015,7 hPa 0,0 l/m 0,00 h 0,10 h 0 W/m 12,9 km/h (3 Bft) 98,04 %
29.04.2023 06:00 9,4 C 8,3 C 5,6 C 96 % 1016,1 hPa 0,0 l/m 0,00 h 0,00 h 7 W/m 10,3 km/h (2 Bft) 97,81 %
29.04.2023 07:00 9,3 C 8,8 C 5,6 C 97 % 1016,8 hPa 0,0 l/m 0,00 h 0,00 h 30 W/m 8,9 km/h (2 Bft) 95,37 %
29.04.2023 08:00 9,4 C 8,9 C 6,0 C 97 % 1017,5 hPa 0,0 l/m 0,00 h 0,00 h 31 W/m 11,5 km/h (2 Bft) 99,36 %
29.04.2023 09:00 9,6 C 9,7 C 6,6 C 96 % 1018,2 hPa 0,0 l/m 0,00 h 0,00 h 105 W/m 11,6 km/h (2 Bft) 96,59 %
29.04.2023 10:00 10,5 C 10,7 C 7,4 C 91 % 1018,8 hPa 0,0 l/m 0,00 h 0,00 h 126 W/m 14,3 km/h (3 Bft) 97,03 %
29.04.2023 11:00 10,6 C 10,5 C 7,2 C 90 % 1019,3 hPa 0,0 l/m 0,00 h 0,00 h 98 W/m 12,6 km/h (3 Bft) 98,44 %
29.04.2023 12:00 11,1 C 11,5 C 7,8 C 89 % 1019,8 hPa 0,0 l/m 0,00 h 0,00 h 134 W/m 9,3 km/h (2 Bft) 97,49 %
29.04.2023 13:00 12,2 C 13,3 C 9,1 C 85 % 1020,0 hPa 0,0 l/m 0,13 h 0,00 h 271 W/m 10,1 km/h (2 Bft) 96,15 %
29.04.2023 14:00 14,0 C 16,7 C 11,0 C 79 % 1020,0 hPa 0,0 l/m 0,63 h 0,00 h 441 W/m 8,3 km/h (2 Bft) 99,93 %
29.04.2023 15:00 14,3 C 14,0 C 10,1 C 75 % 1020,1 hPa 0,0 l/m 0,00 h 0,00 h 110 W/m 5,9 km/h (2 Bft) 96,28 %
29.04.2023 16:00 14,4 C 14,8 C 10,6 C 75 % 1020,4 hPa 0,0 l/m 0,00 h 0,00 h 197 W/m 8,7 km/h (2 Bft) 97,45 %
29.04.2023 17:00 14,8 C 15,1 C 11,0 C 73 % 1020,7 hPa 0,0 l/m 0,00 h 0,00 h 180 W/m 7,2 km/h (2 Bft) 95,87 %
29.04.2023 18:00 15,4 C 16,4 C 11,2 C 71 % 1020,8 hPa 0,0 l/m 0,37 h 0,00 h 183 W/m 8,2 km/h (2 Bft) 98,30 %
29.04.2023 19:00 15,4 C 14,5 C 10,4 C 70 % 1020,9 hPa 0,0 l/m 0,00 h 0,00 h 46 W/m 5,2 km/h (1 Bft) 96,37 %
29.04.2023 20:00 14,7 C 13,3 C 9,4 C 74 % 1021,1 hPa 0,0 l/m 0,00 h 0,00 h 15 W/m 1,9 km/h (1 Bft) 97,83 %
29.04.2023 21:00 14,0 C 12,4 C 8,5 C 77 % 1021,3 hPa 0,0 l/m 0,00 h 0,00 h 0 W/m 0,6 km/h (0 Bft) 97,63 %
29.04.2023 22:00 12,6 C 10,7 C 6,8 C 81 % 1021,7 hPa 0,0 l/m 0,00 h 0,00 h 0 W/m 0,2 km/h (0 Bft) 97,72 %
29.04.2023 23:00 11,4 C 10,2 C 6,6 C 84 % 1022,2 hPa 0,0 l/m 0,00 h 0,00 h 0 W/m 3,7 km/h (1 Bft) 97,70 %
30.04.2023 00:00 10,5 C 9,2 C 5,8 C 83 % 1022,6 hPa 0,0 l/m 0,00 h 0,00 h 0 W/m 3,7 km/h (1 Bft) 94,18 %
30.04.2023 01:00 9,5 C 8,2 C 4,9 C 84 % 1023,0 hPa 0,0 l/m 0,00 h 0,00 h 0 W/m 4,6 km/h (1 Bft) 97,97 %
30.04.2023 02:00 8,6 C 7,1 C 4,1 C 87 % 1023,2 hPa 0,0 l/m 0,00 h 0,00 h 0 W/m 3,3 km/h (1 Bft) 95,70 %
30.04.2023 03:00 7,9 C 6,8 C 3,7 C 90 % 1023,2 hPa 0,0 l/m 0,00 h 0,00 h 0 W/m 6,5 km/h (2 Bft) 97,95 %
30.04.2023 04:00 7,3 C 6,0 C 3,0 C 91 % 1023,3 hPa 0,0 l/m 0,00 h 0,00 h 0 W/m 1,2 km/h (1 Bft) 96,90 %
30.04.2023 05:00 6,7 C 5,6 C 2,7 C 92 % 1023,2 hPa 0,0 l/m 0,00 h 0,00 h 0 W/m 1,3 km/h (1 Bft) 98,07 %
30.04.2023 06:00 6,2 C 5,1 C 2,2 C 93 % 1023,3 hPa 0,0 l/m 0,00 h 0,00 h 11 W/m 0,6 km/h (0 Bft) 98,53 %
30.04.2023 07:00 6,5 C 6,2 C 3,0 C 95 % 1023,7 hPa 0,0 l/m 0,00 h 0,00 h 28 W/m 3,3 km/h (1 Bft) 95,89 %
30.04.2023 08:00 8,0 C 9,9 C 4,7 C 96 % 1023,8 hPa 0,0 l/m 0,40 h 0,00 h 166 W/m 7,6 km/h (2 Bft) 99,19 %
30.04.2023 09:00 12,2 C 19,7 C 8,5 C 85 % 1023,7 hPa 0,0 l/m 0,97 h 0,00 h 468 W/m 6,0 km/h (2 Bft) 98,13 %
30.04.2023 10:00 14,5 C 19,7 C 10,0 C 75 % 1023,7 hPa 0,0 l/m 0,90 h 0,00 h 590 W/m 7,7 km/h (2 Bft) 95,25 %
30.04.2023 11:00 16,0 C 20,9 C 12,8 C 69 % 1023,4 hPa 0,0 l/m 1,00 h 0,00 h 776 W/m 10,9 km/h (2 Bft) 96,59 %
30.04.2023 12:00 18,0 C 26,7 C 18,0 C 63 % 1023,0 hPa 0,0 l/m 1,00 h 0,00 h 873 W/m 13,1 km/h (3 Bft) 96,88 %
30.04.2023 13:00 19,1 C 26,7 C 15,4 C 59 % 1022,4 hPa 0,0 l/m 0,90 h 0,00 h 809 W/m 13,7 km/h (3 Bft) 95,75 %
30.04.2023 14:00 19,6 C 25,9 C 14,9 C 57 % 1021,8 hPa 0,0 l/m 0,93 h 0,00 h 837 W/m 14,0 km/h (3 Bft) 99,20 %
30.04.2023 15:00 19,5 C 24,2 C 14,7 C 56 % 1021,3 hPa 0,0 l/m 0,77 h 0,00 h 604 W/m 13,9 km/h (3 Bft) 97,44 %
30.04.2023 16:00 19,7 C 24,7 C 15,6 C 55 % 1020,7 hPa 0,0 l/m 1,00 h 0,00 h 663 W/m 14,0 km/h (3 Bft) 96,71 %
30.04.2023 17:00 19,9 C 24,2 C 16,4 C 54 % 1020,1 hPa 0,0 l/m 1,00 h 0,00 h 491 W/m 14,5 km/h (3 Bft) 98,39 %
30.04.2023 18:00 19,2 C 23,0 C 15,1 C 55 % 1019,7 hPa 0,0 l/m 1,00 h 0,00 h 301 W/m 12,6 km/h (3 Bft) 97,97 %
30.04.2023 19:00 17,0 C 16,7 C 12,5 C 61 % 1019,4 hPa 0,0 l/m 0,10 h 0,00 h 85 W/m 10,1 km/h (2 Bft) 96,81 %
30.04.2023 20:00 15,4 C 14,4 C 10,8 C 66 % 1019,2 hPa 0,0 l/m 0,00 h 0,00 h 22 W/m 6,5 km/h (2 Bft) 99,15 %
30.04.2023 21:00 14,2 C 12,9 C 9,2 C 69 % 1019,3 hPa 0,0 l/m 0,00 h 0,00 h 0 W/m 4,8 km/h (1 Bft) 94,98 %
30.04.2023 22:00 13,6 C 12,9 C 8,9 C 71 % 1019,3 hPa 0,0 l/m 0,00 h 0,00 h 0 W/m 5,9 km/h (2 Bft) 98,48 %
30.04.2023 23:00 12,9 C 12,3 C 8,3 C 73 % 1019,0 hPa 0,0 l/m 0,00 h 0,00 h 0 W/m 4,8 km/h (1 Bft) 97,42 %
Min-Datum _ 26.04.23 26.04.23 26.04.23 27.04.23 24.04.23 - - - - 24.04.23 29.04.23
_ Min-Zeit 06:18 05:58 05:48 16:14 00:04 - - - - 21:54 00:02
Minimum _ 0,8 C -0,6 C -2,8 C 43 % 1001,5 hPa - - - - 0,0 km/h (0 Bft) 13,33 %
Max-Datum _ 30.04.23 30.04.23 30.04.23 29.04.23 30.04.23 24.04.23 24.04.23 28.04.23 26.04.23 24.04.23 24.04.23
_ Max-Zeit 18:02 13:50 12:44 06:56 07:52 10:04 18:12 00:35 14:44 00:34 00:20
Maximum _ 20,1 C 29,4 C 21,1 C 97 % 1023,9 hPa 2,6 l/m 0,07 h 0,08 h 1041 W/m 61,2 km/h
S-SW (7 Bft)
100,00 %
Durchschnitt _ 10,4 C 10,9 C 6,4 C 79 % 1015,9 hPa #8,6 l/m #38:42 h #8:12 h 262 W/m 10,1 km/h (2 Bft) 97,24 %
© 2023 W. Hausmann